createdAt,value
2022-08-20T00:01:35.508Z,67.50
2022-08-20T00:04:02.086Z,66.73
2022-08-20T00:06:28.639Z,67.42
2022-08-20T00:08:55.149Z,67.64
2022-08-20T00:11:25.079Z,68.19
2022-08-20T00:13:55.283Z,68.31
2022-08-20T00:16:23.801Z,68.55
2022-08-20T00:18:51.091Z,69.24
2022-08-20T00:21:19.457Z,69.95
2022-08-20T00:23:49.439Z,68.89
2022-08-20T00:26:17.103Z,69.46
2022-08-20T00:28:43.654Z,68.20
2022-08-20T00:31:12.464Z,69.44
2022-08-20T00:33:39.378Z,69.04
2022-08-20T00:36:09.420Z,69.36
2022-08-20T00:38:37.870Z,69.14
2022-08-20T00:41:05.937Z,69.52
2022-08-20T00:43:38.191Z,69.69
2022-08-20T00:46:09.488Z,69.67
2022-08-20T00:48:38.494Z,69.37
2022-08-20T00:51:50.013Z,70.26
2022-08-20T00:54:28.948Z,70.16
2022-08-20T00:57:07.252Z,70.27
2022-08-20T00:59:37.343Z,70.50
2022-08-20T01:02:07.671Z,71.65
2022-08-20T01:04:34.905Z,72.55
2022-08-20T01:07:03.442Z,71.54
2022-08-20T01:09:50.244Z,71.78
2022-08-20T01:12:17.229Z,71.71
2022-08-20T01:14:45.436Z,72.75
2022-08-20T01:17:17.680Z,72.44
2022-08-20T01:19:58.321Z,72.32
2022-08-20T01:23:14.456Z,71.47
2022-08-20T01:26:03.427Z,71.51
2022-08-20T01:28:45.651Z,71.44
2022-08-20T01:31:15.787Z,70.55
2022-08-20T01:33:44.973Z,70.57
2022-08-20T01:36:14.372Z,70.98
2022-08-20T01:38:53.868Z,70.91
2022-08-20T01:41:30.733Z,70.78
2022-08-20T01:43:58.831Z,71.35
2022-08-20T01:46:32.818Z,70.89
2022-08-20T01:49:13.541Z,71.41
2022-08-20T01:51:42.667Z,71.42
2022-08-20T01:54:09.298Z,71.51
2022-08-20T01:56:52.157Z,70.95
2022-08-20T01:59:19.264Z,70.85
2022-08-20T02:01:46.151Z,70.35
2022-08-20T02:04:15.319Z,70.32
2022-08-20T02:06:55.926Z,71.63
2022-08-20T02:09:23.730Z,71.23
2022-08-20T02:11:50.350Z,70.97
2022-08-20T02:14:17.108Z,71.38
2022-08-20T02:16:55.160Z,71.39
2022-08-20T02:19:42.422Z,71.94
2022-08-20T02:22:17.974Z,72.01
2022-08-20T02:24:44.485Z,71.58
2022-08-20T02:27:11.513Z,71.90
2022-08-20T02:29:38.824Z,72.16
2022-08-20T02:32:32.379Z,71.82
2022-08-20T02:34:52.941Z,72.37
2022-08-20T02:37:19.478Z,71.75
2022-08-20T02:39:47.075Z,71.69
2022-08-20T02:42:14.412Z,71.40
2022-08-20T02:44:40.945Z,71.80
2022-08-20T02:47:07.748Z,72.16
2022-08-20T02:49:34.963Z,71.87
2022-08-20T02:52:01.532Z,72.57
2022-08-20T02:54:29.321Z,73.02
2022-08-20T02:56:56.095Z,73.82
2022-08-20T02:59:22.618Z,73.15
2022-08-20T03:01:55.852Z,72.78
2022-08-20T03:04:30.389Z,73.20
2022-08-20T03:06:57.987Z,72.96
2022-08-20T03:09:24.644Z,73.19
2022-08-20T03:11:51.369Z,72.55
2022-08-20T03:14:17.883Z,72.50
2022-08-20T03:16:44.434Z,72.39
2022-08-20T03:19:10.976Z,72.54
2022-08-20T03:21:37.502Z,72.31
2022-08-20T03:24:04.270Z,73.05
2022-08-20T03:26:31.237Z,72.84
2022-08-20T03:28:58.097Z,73.47
2022-08-20T03:31:24.648Z,73.75
2022-08-20T03:33:53.394Z,74.41
2022-08-20T03:36:28.051Z,73.55
2022-08-20T03:39:00.557Z,73.07
2022-08-20T03:41:27.598Z,73.43
2022-08-20T03:43:54.888Z,72.88
2022-08-20T03:46:22.062Z,72.90
2022-08-20T03:48:59.897Z,73.05
2022-08-20T03:51:29.432Z,73.30
2022-08-20T03:53:56.254Z,73.73
2022-08-20T03:56:22.938Z,73.39
2022-08-20T03:58:49.521Z,73.94
2022-08-20T04:01:44.260Z,73.93
2022-08-20T04:04:03.196Z,73.88
2022-08-20T04:06:30.377Z,73.51
2022-08-20T04:08:57.062Z,73.67
2022-08-20T04:11:24.324Z,73.82
2022-08-20T04:13:51.254Z,73.70
2022-08-20T04:16:19.326Z,73.77
2022-08-20T04:19:01.755Z,73.98
2022-08-20T04:21:33.446Z,73.57
2022-08-20T04:24:02.503Z,73.81
2022-08-20T04:26:29.998Z,74.45
2022-08-20T04:28:56.849Z,74.36
2022-08-20T04:31:33.129Z,74.39
2022-08-20T04:34:01.763Z,75.00
2022-08-20T04:36:28.424Z,75.08
2022-08-20T04:38:54.962Z,74.53
2022-08-20T04:41:24.150Z,74.76
2022-08-20T04:43:54.179Z,74.47
2022-08-20T04:46:23.611Z,74.44
2022-08-20T04:48:50.255Z,74.45
2022-08-20T04:51:23.432Z,74.83
2022-08-20T04:53:53.600Z,74.05
2022-08-20T04:56:26.504Z,74.70
2022-08-20T04:58:55.746Z,74.59
2022-08-20T05:01:23.925Z,75.28
2022-08-20T05:03:51.258Z,74.46
2022-08-20T05:06:18.795Z,74.44
2022-08-20T05:08:45.881Z,74.98
2022-08-20T05:11:33.072Z,75.38
2022-08-20T05:14:01.060Z,75.43
2022-08-20T05:16:27.581Z,75.88
2022-08-20T05:18:54.195Z,76.21
2022-08-20T05:21:21.460Z,75.79
2022-08-20T05:23:49.291Z,75.52
2022-08-20T05:26:16.423Z,75.15
2022-08-20T05:28:58.065Z,75.73
2022-08-20T05:31:31.494Z,75.67
2022-08-20T05:33:59.426Z,75.30
2022-08-20T05:36:25.926Z,75.92
2022-08-20T05:38:53.874Z,75.44
2022-08-20T05:41:28.561Z,75.35
2022-08-20T05:44:01.281Z,75.67
2022-08-20T05:46:29.706Z,75.35
2022-08-20T05:48:59.322Z,75.81
2022-08-20T05:51:26.857Z,75.06
2022-08-20T05:53:53.395Z,74.94
2022-08-20T05:56:19.906Z,74.69
2022-08-20T05:58:53.221Z,75.36
2022-08-20T06:01:19.790Z,75.36
2022-08-20T06:04:12.329Z,75.73
2022-08-20T06:06:45.319Z,75.67
2022-08-20T06:09:13.401Z,75.59
2022-08-20T06:11:40.005Z,75.61
2022-08-20T06:14:06.570Z,75.48
2022-08-20T06:16:33.299Z,74.95
2022-08-20T06:19:00.081Z,75.05
2022-08-20T06:21:29.907Z,75.40
2022-08-20T06:23:58.259Z,75.83
2022-08-20T06:26:29.936Z,75.55
2022-08-20T06:28:58.684Z,75.53
2022-08-20T06:31:25.357Z,75.24
2022-08-20T06:33:51.890Z,74.87
2022-08-20T06:36:19.274Z,74.36
2022-08-20T06:38:46.347Z,73.42
2022-08-20T06:41:13.989Z,73.69
2022-08-20T06:43:40.909Z,72.73
2022-08-20T06:46:08.281Z,72.94
2022-08-20T06:48:34.906Z,72.91
2022-08-20T06:51:01.614Z,73.13
2022-08-20T06:53:29.089Z,73.27
2022-08-20T06:56:00.920Z,73.72
2022-08-20T06:58:37.322Z,74.21
2022-08-20T07:01:09.606Z,75.63
2022-08-20T07:03:38.742Z,75.39
2022-08-20T07:06:06.325Z,75.07
2022-08-20T07:08:33.398Z,75.37
2022-08-20T07:11:00.061Z,74.55
2022-08-20T07:13:28.358Z,74.17
2022-08-20T07:15:55.837Z,74.03
2022-08-20T07:18:28.312Z,74.29
2022-08-20T07:20:56.535Z,74.53
2022-08-20T07:23:24.230Z,74.27
2022-08-20T07:25:50.855Z,74.89
2022-08-20T07:28:21.924Z,74.46
2022-08-20T07:31:13.495Z,75.28
2022-08-20T07:33:41.814Z,75.04
2022-08-20T07:36:09.158Z,75.57
2022-08-20T07:38:36.344Z,75.83
2022-08-20T07:41:08.143Z,75.76
2022-08-20T07:43:34.777Z,75.36
2022-08-20T07:46:07.420Z,75.28
2022-08-20T07:48:37.074Z,75.68
2022-08-20T07:51:05.114Z,74.98
2022-08-20T07:53:35.823Z,74.84
2022-08-20T07:56:10.278Z,73.29
2022-08-20T07:58:47.449Z,72.34
2022-08-20T08:01:14.021Z,72.81
2022-08-20T08:03:50.296Z,72.85
2022-08-20T08:06:29.967Z,72.72
2022-08-20T08:09:05.055Z,70.88
2022-08-20T08:11:34.898Z,69.59
2022-08-20T08:14:02.869Z,69.46
2022-08-20T08:16:32.623Z,69.79
2022-08-20T08:19:02.233Z,70.37
2022-08-20T08:21:30.217Z,68.84
2022-08-20T08:23:56.971Z,67.07
2022-08-20T08:26:23.926Z,65.44
2022-08-20T08:28:50.803Z,65.38
2022-08-20T08:31:17.366Z,65.74
2022-08-20T08:33:43.991Z,65.79
2022-08-20T08:36:14.165Z,67.64
2022-08-20T08:38:43.664Z,67.60
2022-08-20T08:41:19.721Z,67.71
2022-08-20T08:43:49.756Z,71.29
2022-08-20T08:46:20.720Z,70.55
2022-08-20T08:48:50.135Z,71.81
2022-08-20T08:51:30.109Z,71.71
2022-08-20T08:53:57.366Z,71.98
2022-08-20T08:56:27.241Z,71.16
2022-08-20T08:58:55.663Z,70.35
2022-08-20T09:01:55.132Z,68.75
2022-08-20T09:04:16.218Z,68.44
2022-08-20T09:06:53.693Z,69.18
2022-08-20T09:09:35.610Z,67.75
2022-08-20T09:12:07.716Z,66.36
2022-08-20T09:14:34.709Z,66.06
2022-08-20T09:17:01.370Z,66.32
2022-08-20T09:19:27.997Z,66.52
2022-08-20T09:21:54.543Z,65.57
2022-08-20T09:24:21.110Z,65.57
2022-08-20T09:26:47.761Z,64.99
2022-08-20T09:29:14.595Z,65.44
2022-08-20T09:31:41.582Z,64.74
2022-08-20T09:34:08.545Z,63.96
2022-08-20T09:36:35.372Z,65.19
2022-08-20T09:39:02.782Z,64.27
2022-08-20T09:41:31.218Z,64.61
2022-08-20T09:44:00.477Z,63.43
2022-08-20T09:46:27.680Z,65.11
2022-08-20T09:48:54.889Z,62.57
2022-08-20T09:51:22.076Z,61.51
2022-08-20T09:53:49.100Z,60.07
2022-08-20T09:56:16.705Z,59.70
2022-08-20T09:58:50.962Z,59.91
2022-08-20T10:01:19.860Z,62.92
2022-08-20T10:03:50.493Z,60.50
2022-08-20T10:06:20.133Z,59.13
2022-08-20T10:08:48.065Z,58.11
2022-08-20T10:11:14.687Z,58.97
2022-08-20T10:13:41.451Z,59.30
2022-08-20T10:16:08.357Z,59.60
2022-08-20T10:18:36.451Z,58.33
2022-08-20T10:21:03.096Z,57.69
2022-08-20T10:23:30.413Z,57.65
2022-08-20T10:25:57.027Z,56.39
2022-08-20T10:28:23.720Z,55.73
2022-08-20T10:30:50.249Z,55.44
2022-08-20T10:33:16.863Z,54.55
2022-08-20T10:35:43.382Z,54.04
2022-08-20T10:38:09.885Z,52.61
2022-08-20T10:40:36.494Z,53.04
2022-08-20T10:43:03.430Z,52.16
2022-08-20T10:45:30.888Z,52.78
2022-08-20T10:48:01.383Z,53.21
2022-08-20T10:50:30.580Z,51.93
2022-08-20T10:52:57.614Z,50.91
2022-08-20T10:55:24.245Z,52.00
2022-08-20T10:57:50.778Z,51.10
2022-08-20T11:00:19.029Z,50.24
2022-08-20T11:02:45.637Z,50.39
2022-08-20T11:05:12.197Z,50.77
2022-08-20T11:07:59.842Z,52.29
2022-08-20T11:10:28.985Z,51.02
2022-08-20T11:12:55.751Z,50.45
2022-08-20T11:15:22.318Z,51.37
2022-08-20T11:17:48.934Z,50.03
2022-08-20T11:20:18.187Z,50.05
2022-08-20T11:22:44.900Z,50.23
2022-08-20T11:25:11.541Z,50.96
2022-08-20T11:27:43.016Z,50.22
2022-08-20T11:30:13.264Z,49.33
2022-08-20T11:32:39.915Z,47.69
2022-08-20T11:35:38.398Z,47.40
2022-08-20T11:37:55.598Z,48.38
2022-08-20T11:40:23.181Z,48.73
2022-08-20T11:43:13.107Z,50.18
2022-08-20T11:45:37.411Z,47.86
2022-08-20T11:48:04.706Z,45.34
2022-08-20T11:50:31.279Z,44.88
2022-08-20T11:52:57.926Z,45.90
2022-08-20T11:55:28.567Z,47.22
2022-08-20T11:57:58.216Z,47.12
2022-08-20T12:00:32.282Z,47.86
2022-08-20T12:03:05.481Z,49.23
2022-08-20T12:05:35.371Z,50.34
2022-08-20T12:08:02.123Z,50.50
2022-08-20T12:10:29.324Z,49.08
2022-08-20T12:12:57.235Z,48.03
2022-08-20T12:15:25.340Z,46.39
2022-08-20T12:17:52.298Z,46.14
2022-08-20T12:20:18.954Z,46.13
2022-08-20T12:22:45.486Z,44.64
2022-08-20T12:25:13.304Z,43.37
2022-08-20T12:27:40.738Z,43.12
2022-08-20T12:30:11.425Z,43.03
2022-08-20T12:32:38.317Z,42.55
2022-08-20T12:35:07.086Z,43.41
2022-08-20T12:37:34.033Z,46.05
2022-08-20T12:40:05.261Z,46.99
2022-08-20T12:42:31.857Z,44.82
2022-08-20T12:45:00.354Z,42.13
2022-08-20T12:47:36.203Z,39.51
2022-08-20T12:50:12.508Z,40.38
2022-08-20T12:52:39.846Z,38.62
2022-08-20T12:55:09.145Z,37.29
2022-08-20T12:57:44.226Z,35.86
2022-08-20T13:00:13.373Z,30.98
2022-08-20T13:02:41.362Z,32.58
2022-08-20T13:05:10.314Z,33.83
2022-08-20T13:07:37.075Z,34.55
2022-08-20T13:10:06.333Z,35.24
2022-08-20T13:12:32.891Z,35.22
2022-08-20T13:14:59.414Z,35.64
2022-08-20T13:17:38.664Z,35.72
2022-08-20T13:20:10.785Z,36.14
2022-08-20T13:22:37.504Z,36.57
2022-08-20T13:25:05.905Z,36.70
2022-08-20T13:27:32.590Z,36.94
2022-08-20T13:29:59.387Z,36.13
2022-08-20T13:32:26.536Z,35.17
2022-08-20T13:34:53.219Z,35.52
2022-08-20T13:37:25.588Z,37.26
2022-08-20T13:39:53.826Z,35.63
2022-08-20T13:42:20.789Z,35.84
2022-08-20T13:44:48.014Z,37.07
2022-08-20T13:47:24.414Z,37.19
2022-08-20T13:50:10.832Z,35.93
2022-08-20T13:52:38.522Z,35.79
2022-08-20T13:55:07.659Z,34.72
2022-08-20T13:57:34.770Z,34.26
2022-08-20T14:00:01.722Z,35.02
2022-08-20T14:02:28.623Z,34.55
2022-08-20T14:04:55.450Z,35.88
2022-08-20T14:07:32.010Z,37.70
2022-08-20T14:10:07.037Z,36.46
2022-08-20T14:12:33.719Z,36.86
2022-08-20T14:15:00.273Z,36.84
2022-08-20T14:17:41.250Z,37.61
2022-08-20T14:20:14.513Z,36.99
2022-08-20T14:22:41.870Z,38.10
2022-08-20T14:25:10.525Z,36.86
2022-08-20T14:27:37.939Z,35.95
2022-08-20T14:30:07.734Z,36.09
2022-08-20T14:32:34.606Z,36.70
2022-08-20T14:35:02.180Z,37.43
2022-08-20T14:37:38.390Z,38.20
2022-08-20T14:40:08.362Z,37.88
2022-08-20T14:42:35.439Z,38.29
2022-08-20T14:45:02.580Z,37.33
2022-08-20T14:47:33.223Z,38.27
2022-08-20T14:50:03.132Z,37.62
2022-08-20T14:52:33.812Z,36.49
2022-08-20T14:55:00.528Z,37.02
2022-08-20T14:57:27.724Z,36.79
2022-08-20T14:59:54.354Z,39.43
2022-08-20T15:02:20.934Z,39.88
2022-08-20T15:04:52.248Z,38.02
2022-08-20T15:07:32.526Z,35.13
2022-08-20T15:10:00.908Z,32.60
2022-08-20T15:12:28.744Z,33.83
2022-08-20T15:14:55.347Z,32.90
2022-08-20T15:17:27.371Z,32.31
2022-08-20T15:19:54.769Z,35.53
2022-08-20T15:22:23.474Z,37.33
2022-08-20T15:24:55.477Z,35.70
2022-08-20T15:27:25.353Z,32.43
2022-08-20T15:29:53.362Z,35.48
2022-08-20T15:32:20.961Z,33.52
2022-08-20T15:34:47.775Z,32.75
2022-08-20T15:37:18.957Z,30.94
2022-08-20T15:39:45.774Z,30.37
2022-08-20T15:42:13.071Z,30.17
2022-08-20T15:44:40.594Z,30.34
2022-08-20T15:47:32.301Z,31.54
2022-08-20T15:50:09.295Z,30.28
2022-08-20T15:52:42.874Z,30.87
2022-08-20T15:55:13.445Z,29.98
2022-08-20T15:58:04.004Z,30.50
2022-08-20T16:00:46.201Z,29.84
2022-08-20T16:03:27.967Z,29.28
2022-08-20T16:06:15.225Z,33.88
2022-08-20T16:09:00.430Z,36.31
2022-08-20T16:11:45.319Z,35.46
2022-08-20T16:14:19.742Z,35.56
2022-08-20T16:16:50.538Z,35.95
2022-08-20T16:19:35.026Z,38.02
2022-08-20T16:22:04.807Z,36.46
2022-08-20T16:24:32.331Z,36.81
2022-08-20T16:27:01.567Z,37.80
2022-08-20T16:29:43.263Z,39.22
2022-08-20T16:32:31.705Z,36.89
2022-08-20T16:35:37.702Z,37.76
2022-08-20T16:38:54.634Z,38.19
2022-08-20T16:41:23.945Z,40.22
2022-08-20T16:43:59.946Z,41.50
2022-08-20T16:46:36.121Z,42.47
2022-08-20T16:49:13.374Z,42.84
2022-08-20T16:51:52.276Z,42.40
2022-08-20T16:54:28.261Z,41.76
2022-08-20T16:57:04.166Z,41.77
2022-08-20T16:59:32.621Z,42.29
2022-08-20T17:02:11.163Z,41.99
2022-08-20T17:04:59.505Z,41.69
2022-08-20T17:07:46.823Z,41.94
2022-08-20T17:10:22.950Z,42.36
2022-08-20T17:13:00.325Z,42.93
2022-08-20T17:15:31.138Z,42.91
2022-08-20T17:18:16.170Z,43.21
2022-08-20T17:20:44.948Z,44.01
2022-08-20T17:23:18.004Z,44.09
2022-08-20T17:25:54.570Z,44.46
2022-08-20T17:28:23.098Z,42.70
2022-08-20T17:30:49.747Z,41.71
2022-08-20T17:33:33.481Z,42.54
2022-08-20T17:36:06.547Z,43.25
2022-08-20T17:38:51.622Z,43.88
2022-08-20T17:41:30.941Z,44.37
2022-08-20T17:44:02.489Z,45.40
2022-08-20T17:46:33.354Z,45.55
2022-08-20T17:49:05.370Z,44.81
2022-08-20T17:51:36.890Z,44.60
2022-08-20T17:54:13.172Z,44.92
2022-08-20T17:56:42.735Z,45.63
2022-08-20T17:59:33.559Z,45.97
2022-08-20T18:02:08.935Z,45.97
2022-08-20T18:04:35.727Z,46.78
2022-08-20T18:07:11.275Z,47.32
2022-08-20T18:09:59.867Z,47.06
2022-08-20T18:12:58.035Z,47.27
2022-08-20T18:15:32.653Z,47.66
2022-08-20T18:18:05.029Z,47.82
2022-08-20T18:20:54.677Z,47.73
2022-08-20T18:23:32.842Z,47.49
2022-08-20T18:26:06.365Z,48.20
2022-08-20T18:28:54.342Z,48.55
2022-08-20T18:31:31.815Z,49.10
2022-08-20T18:34:09.643Z,49.13
2022-08-20T18:36:36.487Z,49.23
2022-08-20T18:39:10.038Z,49.46
2022-08-20T18:41:43.669Z,49.20
2022-08-20T18:44:26.845Z,49.81
2022-08-20T18:46:56.481Z,49.75
2022-08-20T18:49:32.685Z,49.91
2022-08-20T18:52:11.437Z,50.32
2022-08-20T18:54:40.454Z,50.17
2022-08-20T18:57:17.462Z,50.64
2022-08-20T18:59:51.201Z,50.86
2022-08-20T19:02:32.515Z,51.36
2022-08-20T19:05:04.486Z,51.27
2022-08-20T19:07:43.264Z,51.68
2022-08-20T19:10:41.553Z,51.85
2022-08-20T19:13:26.478Z,52.32
2022-08-20T19:16:00.991Z,52.00
2022-08-20T19:18:37.398Z,52.13
2022-08-20T19:21:04.968Z,51.91
2022-08-20T19:23:48.863Z,52.67
2022-08-20T19:26:25.784Z,52.74
2022-08-20T19:29:00.596Z,52.47
2022-08-20T19:31:33.201Z,52.92
2022-08-20T19:34:19.993Z,53.21
2022-08-20T19:37:09.154Z,53.26
2022-08-20T19:39:50.871Z,54.08
2022-08-20T19:42:23.957Z,54.19
2022-08-20T19:44:56.306Z,54.11
2022-08-20T19:47:49.262Z,54.09
2022-08-20T19:50:51.663Z,54.02
2022-08-20T19:53:30.078Z,54.45
2022-08-20T19:56:10.429Z,54.36
2022-08-20T19:58:37.442Z,54.99
2022-08-20T20:01:10.566Z,55.81
2022-08-20T20:03:38.192Z,55.45
2022-08-20T20:06:16.613Z,55.65
2022-08-20T20:09:19.708Z,55.44
2022-08-20T20:11:52.906Z,56.15
2022-08-20T20:14:22.985Z,56.80
2022-08-20T20:16:51.197Z,56.41
2022-08-20T20:19:27.766Z,56.58
2022-08-20T20:22:19.443Z,56.47
2022-08-20T20:24:57.146Z,56.74
2022-08-20T20:27:26.386Z,56.67
2022-08-20T20:30:12.478Z,57.18
2022-08-20T20:32:44.782Z,57.56
2022-08-20T20:35:24.012Z,58.05
2022-08-20T20:37:58.817Z,58.34
2022-08-20T20:40:30.946Z,58.79
2022-08-20T20:43:08.676Z,58.59
2022-08-20T20:45:43.791Z,58.77
2022-08-20T20:48:16.254Z,59.47
2022-08-20T20:50:42.934Z,59.78
2022-08-20T20:53:09.994Z,59.77
2022-08-20T20:55:38.170Z,60.87
2022-08-20T20:58:04.907Z,60.91
2022-08-20T21:00:33.906Z,60.72
2022-08-20T21:03:03.788Z,60.63
2022-08-20T21:05:31.724Z,61.15
2022-08-20T21:08:01.438Z,61.48
2022-08-20T21:10:34.936Z,61.42
2022-08-20T21:13:03.781Z,61.94
2022-08-20T21:15:31.008Z,61.74
2022-08-20T21:18:02.133Z,61.78
2022-08-20T21:20:29.064Z,62.59
2022-08-20T21:22:58.388Z,62.54
2022-08-20T21:25:31.293Z,62.46
2022-08-20T21:27:57.930Z,61.97
2022-08-20T21:30:25.078Z,61.59
2022-08-20T21:32:52.391Z,61.09
2022-08-20T21:35:19.176Z,61.29
2022-08-20T21:37:45.849Z,61.18
2022-08-20T21:40:13.445Z,61.18
2022-08-20T21:42:40.738Z,60.83
2022-08-20T21:45:10.185Z,61.25
2022-08-20T21:47:36.758Z,61.17
2022-08-20T21:50:04.748Z,61.22
2022-08-20T21:52:31.344Z,61.31
2022-08-20T21:54:58.011Z,61.63
2022-08-20T21:57:28.730Z,61.18
2022-08-20T21:59:56.357Z,61.65
2022-08-20T22:02:25.308Z,61.71
2022-08-20T22:04:53.956Z,62.11
2022-08-20T22:07:21.355Z,62.27
2022-08-20T22:09:47.984Z,61.76
2022-08-20T22:12:20.014Z,62.01
2022-08-20T22:14:46.896Z,62.24
2022-08-20T22:17:14.609Z,61.89
2022-08-20T22:19:41.406Z,62.51
2022-08-20T22:22:10.738Z,62.35
2022-08-20T22:24:37.747Z,62.65
2022-08-20T22:27:05.814Z,62.24
2022-08-20T22:29:32.865Z,62.59
2022-08-20T22:32:00.421Z,62.83
2022-08-20T22:34:31.260Z,63.70
2022-08-20T22:36:59.425Z,63.62
2022-08-20T22:39:26.811Z,63.88
2022-08-20T22:41:53.607Z,64.28
2022-08-20T22:44:20.477Z,63.74
2022-08-20T22:46:51.559Z,63.45
2022-08-20T22:49:24.013Z,64.27
2022-08-20T22:51:50.744Z,63.98
2022-08-20T22:54:22.194Z,64.19
2022-08-20T22:56:49.538Z,64.17
2022-08-20T22:59:18.038Z,64.65
2022-08-20T23:01:46.313Z,64.97
2022-08-20T23:04:19.485Z,64.83
2022-08-20T23:06:45.998Z,65.24
2022-08-20T23:09:12.796Z,65.16
2022-08-20T23:11:40.361Z,64.72
2022-08-20T23:14:06.890Z,64.83
2022-08-20T23:16:34.627Z,65.12
2022-08-20T23:19:01.264Z,65.11
2022-08-20T23:21:28.029Z,65.60
2022-08-20T23:23:54.674Z,65.93
2022-08-20T23:26:22.544Z,66.03
2022-08-20T23:28:49.174Z,65.83
2022-08-20T23:31:16.141Z,65.74
2022-08-20T23:33:44.965Z,66.08
2022-08-20T23:36:12.854Z,66.95
2022-08-20T23:38:39.601Z,66.87
2022-08-20T23:41:06.254Z,66.59
2022-08-20T23:43:33.201Z,66.60
2022-08-20T23:46:04.238Z,66.57
2022-08-20T23:48:30.834Z,66.11
2022-08-20T23:50:57.545Z,66.59
2022-08-20T23:53:24.355Z,66.87
2022-08-20T23:55:51.086Z,66.54
2022-08-20T23:58:17.831Z,66.68
